KRKD/RKD METAR and TAF weather

Enter ICAO airport designator
Station Type Date Time Source
KRKD METAR 2021/09/28 15:56 UTC NOAA

KRKD 281556Z AUTO 04004KT 10SM BKN043 OVC050 17/14 A2981 RMK AO2 SLP093 T01720139


Station Type Date Time Source
KRKD Decoded METAR 2021/09/28 15:56 UTC NOAA

Rockland, Knox County Regional Airport, ME, United States (KRKD) 44-04N 069-06W
Sep 28, 2021 - 11:56 AM EDT / 2021.09.28 1556 UTC
Wind: from the NE (040 degrees) at 5 MPH (4 KT):0
Visibility: 10 mile(s):0
Sky conditions: overcast
Temperature: 63.0 F (17.2 C)
Dew Point: 57.0 F (13.9 C)
Relative Humidity: 80%
Pressure (altimeter): 29.81 in. Hg (1009 hPa)
ob: KRKD 281556Z AUTO 04004KT 10SM BKN043 OVC050 17/14 A2981 RMK AO2 SLP093 T01720139
cycle: 16

Station Type Date Time Source
KRKD TAF 2021/09/28 12:42 UTC NOAA

TAF KRKD 281139Z 2812/2912 31006KT P6SM OVC050
FM281600 05006KT P6SM VCSH SCT025
FM282100 05005KT P6SM OVC050
FM290000 35006KT P6SM SCT040

Example: see airport list